createdAt,value
2018-11-25T00:01:57.924Z,22.60
2018-11-25T00:04:26.280Z,19.07
2018-11-25T00:06:54.594Z,22.00
2018-11-25T00:09:22.946Z,21.73
2018-11-25T00:11:51.277Z,23.17
2018-11-25T00:14:19.660Z,21.30
2018-11-25T00:16:48.006Z,19.97
2018-11-25T00:19:16.331Z,20.40
2018-11-25T00:21:44.699Z,20.73
2018-11-25T00:24:13.007Z,18.20
2018-11-25T00:26:41.415Z,20.67
2018-11-25T00:29:09.698Z,20.27
2018-11-25T00:31:38.030Z,20.13
2018-11-25T00:34:06.316Z,17.23
2018-11-25T00:36:34.619Z,18.73
2018-11-25T00:39:03.133Z,21.27
2018-11-25T00:41:31.432Z,19.67
2018-11-25T00:43:59.742Z,20.70
2018-11-25T00:46:28.131Z,23.27
2018-11-25T00:48:56.417Z,21.33
2018-11-25T00:51:24.761Z,17.50
2018-11-25T00:53:53.136Z,18.43
2018-11-25T00:56:21.438Z,17.37
2018-11-25T00:58:49.769Z,20.67
2018-11-25T01:01:19.069Z,17.60
2018-11-25T01:03:47.366Z,20.37
2018-11-25T01:06:15.667Z,21.67
2018-11-25T01:08:44.006Z,17.77
2018-11-25T01:11:12.294Z,14.33
2018-11-25T01:13:40.589Z,15.20
2018-11-25T01:16:08.875Z,14.93
2018-11-25T01:18:37.178Z,19.20
2018-11-25T01:21:05.978Z,17.60
2018-11-25T01:23:34.286Z,18.57
2018-11-25T01:26:02.581Z,15.27
2018-11-25T01:28:30.856Z,17.57
2018-11-25T01:30:59.168Z,14.67
2018-11-25T01:33:27.504Z,15.03
2018-11-25T01:35:55.784Z,14.87
2018-11-25T01:38:24.892Z,13.87
2018-11-25T01:40:53.229Z,12.67
2018-11-25T01:43:21.541Z,15.13
2018-11-25T01:45:49.921Z,17.43
2018-11-25T01:48:18.227Z,16.53
2018-11-25T01:50:46.604Z,15.50
2018-11-25T01:53:14.956Z,18.07
2018-11-25T01:55:43.273Z,22.40
2018-11-25T01:58:11.665Z,18.10
2018-11-25T02:00:39.992Z,22.40
2018-11-25T02:03:08.312Z,20.20
2018-11-25T02:05:36.617Z,20.13
2018-11-25T02:08:04.934Z,18.93
2018-11-25T02:10:33.206Z,15.20
2018-11-25T02:13:01.712Z,16.13
2018-11-25T02:15:30.024Z,16.63
2018-11-25T02:17:58.309Z,16.23
2018-11-25T02:20:26.693Z,16.20
2018-11-25T02:22:55.873Z,18.10
2018-11-25T02:25:24.215Z,18.83
2018-11-25T02:27:52.515Z,17.17
2018-11-25T02:30:20.820Z,19.63
2018-11-25T02:32:49.112Z,22.70
2018-11-25T02:35:17.755Z,19.20
2018-11-25T02:37:46.138Z,17.30
2018-11-25T02:40:16.251Z,20.87
2018-11-25T02:42:44.693Z,17.30
2018-11-25T02:45:15.845Z,22.57
2018-11-25T02:47:44.241Z,22.77
2018-11-25T02:50:32.466Z,19.83
2018-11-25T02:53:05.196Z,21.30
2018-11-25T02:55:33.941Z,19.77
2018-11-25T02:58:02.260Z,16.97
2018-11-25T03:00:30.610Z,18.63
2018-11-25T03:02:58.987Z,24.20
2018-11-25T03:05:27.410Z,19.20
2018-11-25T03:07:55.743Z,21.83
2018-11-25T03:10:24.057Z,16.40
2018-11-25T03:12:52.718Z,17.07
2018-11-25T03:15:21.083Z,19.00
2018-11-25T03:17:49.388Z,23.53
2018-11-25T03:20:18.454Z,19.13
2018-11-25T03:22:46.834Z,23.23
2018-11-25T03:25:17.194Z,23.47
2018-11-25T03:27:45.608Z,23.10
2018-11-25T03:30:15.944Z,22.67
2018-11-25T03:32:45.119Z,23.80
2018-11-25T03:35:13.930Z,24.53
2018-11-25T03:37:42.197Z,23.63
2018-11-25T03:40:12.607Z,21.07
2018-11-25T03:42:40.942Z,24.40
2018-11-25T03:45:11.708Z,23.77
2018-11-25T03:47:40.011Z,23.33
2018-11-25T03:50:09.363Z,24.80
2018-11-25T03:52:37.789Z,26.60
2018-11-25T03:55:14.391Z,21.50
2018-11-25T03:57:42.793Z,25.43
2018-11-25T04:00:15.401Z,26.50
2018-11-25T04:02:43.754Z,24.17
2018-11-25T04:05:13.368Z,22.87
2018-11-25T04:07:41.706Z,24.37
2018-11-25T04:10:11.303Z,23.50
2018-11-25T04:12:39.921Z,22.83
2018-11-25T04:18:11.744Z,24.60
2018-11-25T04:20:40.037Z,22.93
2018-11-25T04:23:08.328Z,22.13
2018-11-25T04:25:36.625Z,26.03
2018-11-25T04:28:05.050Z,26.90
2018-11-25T04:30:33.354Z,27.33
2018-11-25T04:33:01.649Z,26.77
2018-11-25T04:35:29.948Z,24.83
2018-11-25T04:37:58.227Z,23.57
2018-11-25T04:40:26.529Z,20.67
2018-11-25T04:42:54.832Z,24.30
2018-11-25T04:45:23.102Z,25.73
2018-11-25T04:47:51.385Z,24.87
2018-11-25T04:50:20.729Z,20.33
2018-11-25T04:52:49.237Z,19.13
2018-11-25T04:55:17.559Z,21.27
2018-11-25T04:57:53.341Z,26.97
2018-11-25T05:00:21.771Z,28.33
2018-11-25T05:02:50.934Z,26.37
2018-11-25T05:05:19.397Z,22.57
2018-11-25T05:07:48.113Z,26.53
2018-11-25T05:10:17.513Z,28.07
2018-11-25T05:12:46.245Z,32.93
2018-11-25T05:15:18.446Z,28.00
2018-11-25T05:17:46.793Z,26.23
2018-11-25T05:20:15.806Z,27.20
2018-11-25T05:22:44.193Z,31.27
2018-11-25T05:25:14.457Z,27.73
2018-11-25T05:27:42.778Z,33.83
2018-11-25T05:30:12.341Z,33.60
2018-11-25T05:32:40.744Z,35.07
2018-11-25T05:35:10.287Z,37.23
2018-11-25T05:37:38.600Z,29.63
2018-11-25T05:40:09.246Z,27.27
2018-11-25T05:42:37.525Z,26.80
2018-11-25T05:45:08.350Z,35.83
2018-11-25T05:47:36.679Z,36.23
2018-11-25T05:50:05.943Z,35.40
2018-11-25T05:52:34.223Z,31.87
2018-11-25T05:55:02.519Z,42.43
2018-11-25T05:57:30.916Z,41.53
2018-11-25T05:59:59.287Z,39.30
2018-11-25T06:02:27.704Z,41.13
2018-11-25T06:04:55.994Z,34.70
2018-11-25T06:07:24.371Z,36.50
2018-11-25T06:09:52.674Z,31.63
2018-11-25T06:12:20.960Z,31.63
2018-11-25T06:14:49.220Z,30.20
2018-11-25T06:17:17.597Z,33.93
2018-11-25T06:19:46.055Z,33.10
2018-11-25T06:22:14.470Z,40.77
2018-11-25T06:24:42.736Z,31.40
2018-11-25T06:27:11.089Z,33.80
2018-11-25T06:29:39.492Z,36.37
2018-11-25T06:32:07.921Z,34.30
2018-11-25T06:34:36.249Z,30.20
2018-11-25T06:37:04.610Z,32.57
2018-11-25T06:39:32.910Z,34.63
2018-11-25T06:42:01.209Z,32.77
2018-11-25T06:44:29.603Z,30.83
2018-11-25T06:46:58.561Z,42.50
2018-11-25T06:49:27.017Z,38.33
2018-11-25T06:51:55.366Z,39.57
2018-11-25T06:54:23.661Z,33.80
2018-11-25T06:56:52.085Z,36.67
2018-11-25T06:59:20.365Z,32.60
2018-11-25T07:01:48.803Z,27.30
2018-11-25T07:04:17.115Z,31.53
2018-11-25T07:06:45.710Z,32.27
2018-11-25T07:09:14.073Z,34.87
2018-11-25T07:11:42.457Z,31.87
2018-11-25T07:14:10.802Z,34.13
2018-11-25T07:16:39.062Z,32.27
2018-11-25T07:19:07.359Z,31.60
2018-11-25T07:21:35.717Z,30.60
2018-11-25T07:24:04.604Z,36.93
2018-11-25T07:26:32.915Z,32.37
2018-11-25T07:29:01.252Z,33.43
2018-11-25T07:31:29.570Z,34.57
2018-11-25T07:33:57.898Z,34.47
2018-11-25T07:36:26.243Z,34.67
2018-11-25T07:38:54.963Z,32.93
2018-11-25T07:41:23.273Z,34.53
2018-11-25T07:43:51.595Z,34.10
2018-11-25T07:46:19.886Z,30.03
2018-11-25T07:48:48.194Z,32.67
2018-11-25T07:51:16.592Z,32.47
2018-11-25T07:53:45.124Z,34.13
2018-11-25T07:56:13.554Z,23.63
2018-11-25T07:58:41.889Z,23.27
2018-11-25T08:01:10.328Z,29.03
2018-11-25T08:03:38.724Z,28.73
2018-11-25T08:06:07.098Z,25.13
2018-11-25T08:08:35.404Z,24.10
2018-11-25T08:11:03.799Z,24.70
2018-11-25T08:13:32.186Z,23.07
2018-11-25T08:16:00.578Z,28.37
2018-11-25T08:18:28.964Z,26.30
2018-11-25T08:20:57.379Z,22.70
2018-11-25T08:23:25.753Z,18.63
2018-11-25T08:25:54.177Z,20.97
2018-11-25T08:28:22.560Z,17.13
2018-11-25T08:30:50.942Z,18.07
2018-11-25T08:33:19.364Z,23.80
2018-11-25T08:35:47.745Z,19.30
2018-11-25T08:38:16.073Z,23.93
2018-11-25T08:40:44.433Z,23.13
2018-11-25T08:43:12.869Z,18.40
2018-11-25T08:45:41.620Z,18.97
2018-11-25T08:48:10.026Z,14.27
2018-11-25T08:50:38.549Z,18.73
2018-11-25T08:53:06.971Z,25.30
2018-11-25T08:55:42.016Z,19.67
2018-11-25T08:58:16.661Z,18.53
2018-11-25T09:00:46.098Z,20.90
2018-11-25T09:03:14.487Z,17.50
2018-11-25T09:05:42.928Z,18.10
2018-11-25T09:08:31.095Z,17.80
2018-11-25T09:10:59.532Z,15.57
2018-11-25T09:13:27.942Z,15.63
2018-11-25T09:16:02.822Z,15.13
2018-11-25T09:18:33.181Z,12.80
2018-11-25T09:21:01.582Z,10.60
2018-11-25T09:23:30.011Z,17.87
2018-11-25T09:25:58.362Z,27.10
2018-11-25T09:28:26.822Z,18.63
2018-11-25T09:30:55.173Z,18.03
2018-11-25T09:33:23.523Z,22.50
2018-11-25T09:35:51.934Z,23.63
2018-11-25T09:38:20.342Z,20.73
2018-11-25T09:40:51.274Z,26.27
2018-11-25T09:43:21.633Z,20.93
2018-11-25T09:45:54.276Z,29.03
2018-11-25T09:48:22.634Z,30.30
2018-11-25T09:50:50.994Z,21.40
2018-11-25T09:53:19.360Z,17.30
2018-11-25T09:55:48.796Z,20.60
2018-11-25T09:58:25.431Z,22.83
2018-11-25T10:00:50.745Z,21.47
2018-11-25T10:03:19.146Z,27.63
2018-11-25T10:05:48.676Z,23.53
2018-11-25T10:08:18.069Z,25.50
2018-11-25T10:10:52.604Z,28.93
2018-11-25T10:13:16.257Z,23.93
2018-11-25T10:15:47.137Z,28.37
2018-11-25T10:18:15.530Z,24.10
2018-11-25T10:20:55.738Z,27.27
2018-11-25T10:23:26.133Z,20.97
2018-11-25T10:25:55.857Z,24.53
2018-11-25T10:28:28.377Z,22.33
2018-11-25T10:30:57.850Z,22.40
2018-11-25T10:33:26.200Z,17.80
2018-11-25T10:35:59.472Z,19.20
2018-11-25T10:38:27.869Z,17.37
2018-11-25T10:41:02.078Z,16.80
2018-11-25T10:43:34.296Z,16.87
2018-11-25T10:46:03.685Z,18.20
2018-11-25T10:48:33.045Z,19.43
2018-11-25T10:51:01.516Z,18.17
2018-11-25T10:53:29.923Z,16.83
2018-11-25T10:55:58.352Z,13.00
2018-11-25T10:58:26.728Z,13.20
2018-11-25T11:01:00.365Z,17.37
2018-11-25T11:03:34.128Z,12.87
2018-11-25T11:06:07.837Z,13.67
2018-11-25T11:08:39.324Z,18.60
2018-11-25T11:11:11.682Z,16.47
2018-11-25T11:13:40.169Z,14.20
2018-11-25T11:16:08.583Z,13.30
2018-11-25T11:18:36.934Z,13.80
2018-11-25T11:21:05.748Z,13.70
2018-11-25T11:23:36.086Z,14.53
2018-11-25T11:26:07.021Z,13.53
2018-11-25T11:28:32.820Z,12.63
2018-11-25T11:31:01.225Z,13.40
2018-11-25T11:33:29.976Z,12.90
2018-11-25T11:35:59.358Z,20.30
2018-11-25T11:38:27.781Z,15.33
2018-11-25T11:40:57.223Z,18.20
2018-11-25T11:43:25.584Z,17.70
2018-11-25T11:45:57.840Z,15.87
2018-11-25T11:48:27.225Z,16.37
2018-11-25T11:50:55.606Z,20.27
2018-11-25T11:53:23.977Z,16.57
2018-11-25T11:55:52.415Z,15.97
2018-11-25T11:58:20.849Z,15.00
2018-11-25T12:00:49.243Z,13.60
2018-11-25T12:03:26.141Z,15.43
2018-11-25T12:05:46.010Z,13.00
2018-11-25T12:08:14.353Z,12.10
2018-11-25T12:10:42.850Z,13.60
2018-11-25T12:13:16.269Z,10.40
2018-11-25T12:15:45.307Z,11.53
2018-11-25T12:18:13.690Z,12.27
2018-11-25T12:20:43.083Z,10.13
2018-11-25T12:23:23.265Z,11.80
2018-11-25T12:25:51.634Z,10.50
2018-11-25T12:28:21.032Z,10.73
2018-11-25T12:30:49.442Z,10.07
2018-11-25T12:33:18.942Z,8.70
2018-11-25T12:38:38.888Z,8.80
2018-11-25T12:41:17.009Z,9.80
2018-11-25T12:43:46.390Z,8.63
2018-11-25T12:46:24.363Z,8.57
2018-11-25T12:48:57.743Z,9.00
2018-11-25T12:51:33.700Z,11.37
2018-11-25T12:54:07.006Z,11.93
2018-11-25T12:56:37.300Z,10.50
2018-11-25T12:59:06.425Z,9.90
2018-11-25T13:01:42.006Z,9.50
2018-11-25T13:04:14.408Z,11.03
2018-11-25T13:06:42.726Z,9.40
2018-11-25T13:09:18.564Z,10.40
2018-11-25T13:11:52.255Z,9.23
2018-11-25T13:14:21.672Z,11.57
2018-11-25T13:17:02.770Z,8.67
2018-11-25T13:19:39.742Z,8.90
2018-11-25T13:22:09.920Z,8.33
2018-11-25T13:24:44.817Z,8.17
2018-11-25T13:27:16.145Z,7.60
2018-11-25T13:29:46.078Z,8.73
2018-11-25T13:32:14.435Z,7.77
2018-11-25T13:34:50.079Z,9.30
2018-11-25T13:37:27.097Z,8.37
2018-11-25T13:39:58.898Z,7.77
2018-11-25T13:42:33.862Z,10.67
2018-11-25T13:45:12.034Z,8.73
2018-11-25T13:47:42.404Z,10.20
2018-11-25T13:50:17.537Z,9.80
2018-11-25T13:52:47.895Z,9.70
2018-11-25T13:55:20.716Z,9.37
2018-11-25T13:57:51.086Z,8.73
2018-11-25T14:00:57.546Z,7.87
2018-11-25T14:03:43.860Z,8.37
2018-11-25T14:06:18.369Z,8.53
2018-11-25T14:08:51.786Z,7.90
2018-11-25T14:11:20.153Z,7.57
2018-11-25T14:13:59.304Z,7.47
2018-11-25T14:16:31.675Z,9.60
2018-11-25T14:19:02.055Z,11.53
2018-11-25T14:21:31.601Z,8.83
2018-11-25T14:24:20.986Z,8.13
2018-11-25T14:26:55.128Z,11.13
2018-11-25T14:29:24.461Z,9.43
2018-11-25T14:31:56.796Z,8.80
2018-11-25T14:34:25.245Z,8.97
2018-11-25T14:36:57.094Z,9.43
2018-11-25T14:39:25.418Z,9.77
2018-11-25T14:41:54.375Z,11.03
2018-11-25T14:44:23.865Z,10.17
2018-11-25T14:46:59.488Z,11.90
2018-11-25T14:49:28.371Z,9.57
2018-11-25T14:51:56.802Z,8.97
2018-11-25T14:54:26.628Z,8.93
2018-11-25T14:56:55.011Z,9.70
2018-11-25T14:59:24.972Z,10.70
2018-11-25T15:01:53.564Z,9.93
2018-11-25T15:04:23.064Z,10.83
2018-11-25T15:06:52.661Z,10.23
2018-11-25T15:09:21.128Z,11.07
2018-11-25T15:11:49.526Z,9.60
2018-11-25T15:14:17.920Z,10.00
2018-11-25T15:16:46.345Z,10.43
2018-11-25T15:19:14.666Z,10.30
2018-11-25T15:21:43.032Z,11.13
2018-11-25T15:24:11.453Z,25.37
2018-11-25T15:26:39.949Z,28.47
2018-11-25T15:29:08.269Z,27.13
2018-11-25T15:31:36.716Z,23.23
2018-11-25T15:34:05.254Z,20.03
2018-11-25T15:36:33.908Z,16.90
2018-11-25T15:39:02.352Z,15.33
2018-11-25T15:41:30.713Z,13.27
2018-11-25T15:43:59.125Z,13.27
2018-11-25T15:46:28.557Z,12.17
2018-11-25T15:49:01.007Z,13.53
2018-11-25T15:51:29.380Z,13.73
2018-11-25T15:53:58.854Z,13.77
2018-11-25T15:56:28.283Z,12.87
2018-11-25T15:59:00.649Z,11.70
2018-11-25T16:01:29.130Z,10.80
2018-11-25T16:03:57.509Z,10.57
2018-11-25T16:06:28.290Z,9.77
2018-11-25T16:09:08.904Z,9.00
2018-11-25T16:11:37.339Z,10.07
2018-11-25T16:14:07.722Z,9.27
2018-11-25T16:16:50.585Z,10.60
2018-11-25T16:19:19.015Z,47.87
2018-11-25T16:21:49.431Z,50.77
2018-11-25T16:24:22.072Z,30.20
2018-11-25T16:26:50.544Z,17.23
2018-11-25T16:29:26.049Z,13.90
2018-11-25T16:31:59.469Z,11.40
2018-11-25T16:34:48.013Z,10.50
2018-11-25T16:37:18.912Z,15.43
2018-11-25T16:39:50.429Z,15.40
2018-11-25T16:42:18.865Z,13.17
2018-11-25T16:44:49.296Z,13.43
2018-11-25T16:47:21.745Z,15.73
2018-11-25T16:50:01.344Z,14.33
2018-11-25T16:52:44.123Z,13.57
2018-11-25T16:55:13.500Z,15.23
2018-11-25T16:57:45.813Z,15.10
2018-11-25T17:00:21.116Z,13.93
2018-11-25T17:02:49.536Z,12.93
2018-11-25T17:05:23.340Z,11.57
2018-11-25T17:08:00.627Z,12.47
2018-11-25T17:10:42.300Z,13.73
2018-11-25T17:13:14.672Z,13.63
2018-11-25T17:15:43.048Z,12.63
2018-11-25T17:18:21.827Z,13.27
2018-11-25T17:20:56.819Z,13.47
2018-11-25T17:23:25.168Z,11.80
2018-11-25T17:25:59.696Z,11.77
2018-11-25T17:28:32.910Z,12.97
2018-11-25T17:31:02.242Z,12.13
2018-11-25T17:33:30.610Z,13.93
2018-11-25T17:35:58.906Z,13.47
2018-11-25T17:38:27.331Z,13.83
2018-11-25T17:40:57.882Z,15.53
2018-11-25T17:43:32.769Z,13.03
2018-11-25T17:46:01.202Z,13.03
2018-11-25T17:48:36.153Z,13.57
2018-11-25T17:51:16.981Z,13.60
2018-11-25T17:53:59.141Z,13.63
2018-11-25T17:56:28.465Z,13.83
2018-11-25T17:58:56.950Z,15.57
2018-11-25T18:01:25.348Z,17.80
2018-11-25T18:03:54.730Z,16.37
2018-11-25T18:06:24.137Z,15.87
2018-11-25T18:08:54.445Z,14.53
2018-11-25T18:11:22.846Z,12.73
2018-11-25T18:13:53.166Z,13.63
2018-11-25T18:16:32.321Z,12.70
2018-11-25T18:19:13.869Z,12.33
2018-11-25T18:21:44.197Z,12.67
2018-11-25T18:24:13.518Z,12.20
2018-11-25T18:26:45.925Z,11.80
2018-11-25T18:29:18.292Z,10.23
2018-11-25T18:31:50.983Z,9.83
2018-11-25T18:34:24.352Z,11.00
2018-11-25T18:36:56.745Z,10.30
2018-11-25T18:39:30.075Z,11.50
2018-11-25T18:41:58.492Z,13.33
2018-11-25T18:44:30.808Z,15.20
2018-11-25T18:46:59.145Z,12.90
2018-11-25T18:49:34.679Z,12.50
2018-11-25T18:52:05.540Z,11.70
2018-11-25T18:54:33.805Z,13.10
2018-11-25T18:57:19.753Z,12.67
2018-11-25T18:59:49.251Z,12.87
2018-11-25T19:02:22.221Z,11.70
2018-11-25T19:07:42.202Z,12.77
2018-11-25T19:10:17.671Z,10.87
2018-11-25T19:15:39.001Z,11.57
2018-11-25T19:18:08.738Z,10.10
2018-11-25T19:20:37.173Z,9.50
2018-11-25T19:23:07.726Z,10.10
2018-11-25T19:25:37.164Z,9.50
2018-11-25T19:28:08.071Z,9.70
2018-11-25T19:30:40.388Z,10.00
2018-11-25T19:33:09.989Z,10.57
2018-11-25T19:35:38.460Z,11.23
2018-11-25T19:38:08.745Z,10.57
2018-11-25T19:40:44.706Z,11.10
2018-11-25T19:43:18.701Z,11.33
2018-11-25T19:45:48.129Z,11.13
2018-11-25T19:48:16.552Z,11.70
2018-11-25T19:50:45.989Z,11.17
2018-11-25T19:53:18.260Z,11.23
2018-11-25T19:55:53.028Z,10.87
2018-11-25T19:58:21.455Z,9.67
2018-11-25T20:00:53.845Z,10.00
2018-11-25T20:03:26.338Z,9.00
2018-11-25T20:06:01.288Z,9.70
2018-11-25T20:08:29.781Z,12.20
2018-11-25T20:10:58.185Z,12.03
2018-11-25T20:13:26.639Z,10.10
2018-11-25T20:16:04.195Z,10.30
2018-11-25T20:18:45.784Z,9.23
2018-11-25T20:21:20.724Z,10.27
2018-11-25T20:23:49.058Z,12.73
2018-11-25T20:26:19.453Z,13.10
2018-11-25T20:28:47.943Z,13.07
2018-11-25T20:31:16.345Z,12.10
2018-11-25T20:33:53.404Z,10.73
2018-11-25T20:36:25.898Z,10.83
2018-11-25T20:39:03.640Z,9.73
2018-11-25T20:41:33.064Z,9.00
2018-11-25T20:44:01.654Z,8.97
2018-11-25T20:46:39.277Z,8.50
2018-11-25T20:49:14.206Z,8.80
2018-11-25T20:51:47.932Z,10.00
2018-11-25T20:54:16.322Z,9.07
2018-11-25T20:56:46.592Z,9.07
2018-11-25T20:59:21.265Z,9.03
2018-11-25T21:01:49.609Z,9.53
2018-11-25T21:04:18.059Z,9.53
2018-11-25T21:06:48.493Z,8.20
2018-11-25T21:09:16.931Z,8.13
2018-11-25T21:11:50.105Z,8.20
2018-11-25T21:14:20.444Z,7.57
2018-11-25T21:16:48.938Z,7.37
2018-11-25T21:19:19.463Z,7.87
2018-11-25T21:21:51.745Z,7.47
2018-11-25T21:24:27.760Z,8.47
2018-11-25T21:26:56.203Z,7.63
2018-11-25T21:29:26.611Z,7.40
2018-11-25T21:31:56.994Z,7.17
2018-11-25T21:34:25.446Z,7.00
2018-11-25T21:36:53.776Z,7.40
2018-11-25T21:39:22.149Z,6.33
2018-11-25T21:41:50.536Z,6.63
2018-11-25T21:44:19.110Z,7.13
2018-11-25T21:46:47.634Z,7.10
2018-11-25T21:49:16.047Z,7.20
2018-11-25T21:51:44.441Z,7.90
2018-11-25T21:54:13.098Z,7.00
2018-11-25T21:56:41.537Z,7.47
2018-11-25T21:59:09.996Z,7.20
2018-11-25T22:01:38.430Z,7.20
2018-11-25T22:04:07.835Z,7.37
2018-11-25T22:06:36.275Z,8.80
2018-11-25T22:09:08.409Z,7.57
2018-11-25T22:11:36.934Z,7.93
2018-11-25T22:14:05.674Z,8.97
2018-11-25T22:16:34.156Z,9.63
2018-11-25T22:19:02.596Z,8.37
2018-11-25T22:21:31.026Z,8.77
2018-11-25T22:23:59.492Z,7.67
2018-11-25T22:26:28.000Z,8.97
2018-11-25T22:28:56.438Z,8.67
2018-11-25T22:31:24.872Z,8.27
2018-11-25T22:33:53.241Z,8.60
2018-11-25T22:36:21.806Z,8.43
2018-11-25T22:38:51.988Z,8.63
2018-11-25T22:41:20.390Z,8.90
2018-11-25T22:43:48.872Z,10.20
2018-11-25T22:46:17.308Z,11.77
2018-11-25T22:48:45.669Z,11.37
2018-11-25T22:51:14.075Z,10.13
2018-11-25T22:53:42.700Z,9.63
2018-11-25T22:56:11.218Z,10.00
2018-11-25T22:58:39.623Z,10.00
2018-11-25T23:01:08.009Z,10.43
2018-11-25T23:03:36.394Z,9.67
2018-11-25T23:06:15.998Z,8.90
2018-11-25T23:08:44.282Z,8.07
2018-11-25T23:11:12.705Z,8.83
2018-11-25T23:13:41.059Z,8.97
2018-11-25T23:16:09.440Z,8.33
2018-11-25T23:18:37.795Z,8.20
2018-11-25T23:21:06.222Z,8.13
2018-11-25T23:23:34.742Z,8.67
2018-11-25T23:26:03.284Z,8.43
2018-11-25T23:28:31.723Z,8.70
2018-11-25T23:31:00.210Z,7.77
2018-11-25T23:33:28.554Z,8.80
2018-11-25T23:35:57.484Z,8.37
2018-11-25T23:38:25.896Z,8.70
2018-11-25T23:40:54.226Z,8.47
2018-11-25T23:43:22.601Z,8.57
2018-11-25T23:45:51.071Z,8.07
2018-11-25T23:48:19.451Z,8.60
2018-11-25T23:50:47.883Z,9.07
2018-11-25T23:53:16.214Z,9.47
2018-11-25T23:55:44.612Z,8.20
2018-11-25T23:58:12.939Z,9.40
